Huvudsida
METAR-TAF:

METAR-TAF

Flygplatser :

Lal Bahadur Shastri Airport

Varanasi, Indien

latitud: 25-27N, longitud: 082-52E, höjd: 81 m

Aktuellt väderrapport

Denna rapport gjordes för 1 timme och 10 minuter sedan, klockan 04:00 UTC
Vind 4 kt från väst
Temperatur 36°C
Fuktighet 22%
Tryck 1006 hPa
Sikt: 5000 m
torrdis,

METAR: VEBN 240400Z 27004KT 5000 HZ NSC 36/11 Q1006 NOSIG

Tid: 10:40 (05:10 UTC)

Väderprognos

Denna rapport gjordes för 3 timmar och 10 minuter sedan, klockan 02:00 UTC
Prognos gäller från 24 kl. 03 UTC till 24 kl. 12 UTC
Vind 5 kt från sydväst
Sikt: 4000 m
torrdis
Blir
från 24 kl. 04 UTC till 24 kl. 06 UTC
Vind 8 kt från väst
Sikt: 5000 m
torrdis
Blir
från 24 kl. 06 UTC till 24 kl. 08 UTC
Vind 10 kt från nordväst i byarna ända upp till 20 kt
Sikt: 5000 m
torrdis,

TAF: VEBN 240200Z 2403/2412 23005KT 4000 HZ NSC BECMG 2404/2406 26008KT 5000 HZ BECMG 2406/2408 32010G20KT 5000 HZ

Aktuella väderrapporter och prognoser från 4000 flygplatser (METAR- och TAF-rapporter).

De tillgängliga stationerna syns som gula och röda prickar på kartan.

För musen över prickarna för att se namnen på stationerna.

Klicka sedan för att få väderrapporter och prognoser.

För att ändra kartan: Klicka på de gröna knapparna med ett svart kors på för att zooma in; den gröna knappen med ett streck på för att zooma ut; eller på de gröna pilarna för angränsande kartor.


METAR-TAF: